Time;durP1;ratioP1;P1;durP2;ratioP2;P2;SDS_P1;SDS_P2;PMS_P1;PMS_P2;Temp;Humidity;BMP_temperature;BMP_pressure;BME280_temperature;BME280_humidity;BME280_pressure;Samples;Min_cycle;Max_cycle;Signal;HPM_P1;HPM_P2
2022/06/08 00:00:19;;;;;;;;;;;23.60;47.80;;;;;;5073738;28;20287;-62
2022/06/08 00:02:46;;;;;;;;;;;23.60;47.70;;;;;;5073917;28;20253;-62
2022/06/08 00:05:11;;;;;;;;;;;23.70;47.70;;;;;;5055760;28;19912;-62
2022/06/08 00:07:37;;;;;;;;;;;23.70;47.70;;;;;;5073480;28;19915;-62
2022/06/08 00:10:02;;;;;;;;;;;23.70;47.70;;;;;;5073648;28;20003;-62
2022/06/08 00:12:28;;;;;;;;;;;23.70;47.80;;;;;;5073403;28;19909;-62
2022/06/08 00:14:54;;;;;;;;;;;23.70;47.70;;;;;;5073803;28;19908;-62
2022/06/08 00:17:19;;;;;;;;;;;23.60;47.60;;;;;;5089041;28;19908;-62
2022/06/08 00:19:45;;;;;;;;;;;23.60;47.70;;;;;;5073371;28;19952;-62
2022/06/08 00:22:11;;;;;;;;;;;23.60;47.80;;;;;;5089061;28;19948;-62
2022/06/08 00:24:37;;;;;;;;;;;23.60;47.70;;;;;;5073268;28;19916;-62
2022/06/08 00:27:02;;;;;;;;;;;23.60;47.70;;;;;;5055586;28;19913;-62
2022/06/08 00:29:28;;;;;;;;;;;23.50;47.80;;;;;;5073470;28;20364;-62
2022/06/08 00:31:53;;;;;;;;;;;23.60;47.90;;;;;;5073338;28;19991;-62
2022/06/08 00:34:19;;;;;;;;;;;23.60;47.90;;;;;;5072692;28;19908;-62
2022/06/08 00:36:44;;;;;;;;;;;23.60;47.90;;;;;;5073150;28;20003;-62
2022/06/08 00:39:10;;;;;;;;;;;23.50;47.80;;;;;;5055250;28;20399;-62
2022/06/08 00:41:38;;;;;;;;;;;23.50;47.90;;;;;;5055274;28;20261;-62
2022/06/08 00:44:05;;;;;;;;;;;23.50;47.90;;;;;;5073208;28;19952;-62
2022/06/08 00:46:30;;;;;;;;;;;23.50;47.80;;;;;;5072845;28;19921;-61
2022/06/08 00:48:56;;;;;;;;;;;23.60;47.80;;;;;;5073024;28;20292;-62
2022/06/08 00:51:22;;;;;;;;;;;23.60;47.80;;;;;;5055070;28;20603;-62
2022/06/08 00:54:01;;;;;;;;;;;23.50;47.80;;;;;;5055021;28;19909;-62
2022/06/08 00:56:28;;;;;;;;;;;23.50;47.80;;;;;;5073029;28;20372;-62
2022/06/08 00:58:53;;;;;;;;;;;23.50;47.80;;;;;;5055037;28;19908;-62
2022/06/08 01:01:19;;;;;;;;;;;23.50;47.70;;;;;;5073092;28;19909;-62
2022/06/08 01:03:44;;;;;;;;;;;23.60;47.70;;;;;;5072866;28;19908;-62
2022/06/08 01:06:14;;;;;;;;;;;23.50;47.70;;;;;;5072930;28;19966;-62
2022/06/08 01:08:47;;;;;;;;;;;23.50;47.70;;;;;;5054891;28;20383;-62
2022/06/08 01:11:22;;;;;;;;;;;23.60;47.70;;;;;;5054954;28;19980;-62
2022/06/08 01:13:47;;;;;;;;;;;23.60;47.70;;;;;;5054921;28;19909;-62
2022/06/08 01:16:13;;;;;;;;;;;23.50;47.70;;;;;;5054902;28;20004;-62
2022/06/08 01:18:39;;;;;;;;;;;23.50;47.80;;;;;;5072726;28;19916;-62
2022/06/08 01:21:19;;;;;;;;;;;23.50;47.80;;;;;;5072813;28;19908;-62
2022/06/08 01:23:48;;;;;;;;;;;23.50;47.90;;;;;;5072746;28;19909;-62
2022/06/08 01:26:17;;;;;;;;;;;23.50;47.90;;;;;;5072815;28;20327;-62
2022/06/08 01:28:51;;;;;;;;;;;23.50;47.80;;;;;;5054817;28;19916;-62
2022/06/08 01:31:37;;;;;;;;;;;23.50;47.80;;;;;;5072759;28;19908;-62
2022/06/08 01:34:02;;;;;;;;;;;23.50;47.80;;;;;;5071988;28;19916;-62
2022/06/08 01:36:28;;;;;;;;;;;23.50;47.80;;;;;;5072698;28;19908;-62
2022/06/08 01:38:59;;;;;;;;;;;23.50;47.90;;;;;;5054596;28;20364;-62
2022/06/08 01:41:45;;;;;;;;;;;23.40;47.80;;;;;;5071433;28;19908;-62
2022/06/08 01:44:18;;;;;;;;;;;23.40;47.80;;;;;;5054790;28;20380;-62
2022/06/08 01:46:54;;;;;;;;;;;23.40;47.80;;;;;;5055823;28;19963;-62
2022/06/08 01:49:20;;;;;;;;;;;23.40;47.80;;;;;;5058719;28;19916;-62
2022/06/08 01:51:50;;;;;;;;;;;23.40;47.80;;;;;;5076154;28;19916;-62
2022/06/08 01:54:28;;;;;;;;;;;23.40;47.80;;;;;;5076115;28;19913;-62
2022/06/08 01:57:05;;;;;;;;;;;23.40;47.80;;;;;;5076181;28;20372;-62
2022/06/08 01:59:49;;;;;;;;;;;23.40;47.80;;;;;;5058226;28;19912;-62
2022/06/08 02:02:18;;;;;;;;;;;23.40;47.80;;;;;;5076020;28;19995;-62
2022/06/08 02:04:43;;;;;;;;;;;23.40;47.90;;;;;;5075962;28;19912;-62
2022/06/08 02:07:14;;;;;;;;;;;23.40;48.00;;;;;;5076061;28;20004;-62
2022/06/08 02:09:42;;;;;;;;;;;23.40;48.00;;;;;;5075748;28;19913;-62
2022/06/08 02:12:08;;;;;;;;;;;23.40;47.90;;;;;;5057972;28;20395;-62
2022/06/08 02:14:36;;;;;;;;;;;23.40;47.80;;;;;;5075803;28;20356;-62
2022/06/08 02:17:03;;;;;;;;;;;23.40;47.70;;;;;;5057955;28;20014;-62
2022/06/08 02:19:44;;;;;;;;;;;23.40;47.80;;;;;;5075818;28;19908;-62
2022/06/08 02:22:30;;;;;;;;;;;23.40;47.80;;;;;;5057854;28;20010;-63
2022/06/08 02:25:01;;;;;;;;;;;23.40;47.90;;;;;;5057162;28;19908;-62
2022/06/08 02:27:30;;;;;;;;;;;23.40;47.90;;;;;;5057731;28;19912;-61
2022/06/08 02:29:58;;;;;;;;;;;23.30;47.90;;;;;;5057675;28;20334;-62
2022/06/08 02:35:16;;;;;;;;;;;23.30;47.90;;;;;;5060411;28;19952;-62
2022/06/08 02:37:42;;;;;;;;;;;23.30;48.00;;;;;;5057926;28;19916;-62
2022/06/08 02:40:12;;;;;;;;;;;23.30;47.90;;;;;;5057388;28;19909;-62
2022/06/08 02:42:47;;;;;;;;;;;23.30;47.90;;;;;;5057497;28;19940;-62
2022/06/08 02:45:15;;;;;;;;;;;23.30;47.90;;;;;;5075347;28;20261;-62
2022/06/08 02:47:41;;;;;;;;;;;23.30;47.90;;;;;;5057095;28;19921;-62
2022/06/08 02:50:08;;;;;;;;;;;23.30;47.90;;;;;;5075264;28;19916;-62
2022/06/08 02:52:34;;;;;;;;;;;23.30;47.90;;;;;;5075424;28;19923;-62
2022/06/08 02:54:59;;;;;;;;;;;23.30;47.90;;;;;;5075234;28;19909;-62
2022/06/08 02:57:27;;;;;;;;;;;23.30;47.90;;;;;;5074682;28;20362;-62
2022/06/08 02:59:53;;;;;;;;;;;23.30;47.90;;;;;;5074997;28;19913;-62
2022/06/08 03:02:24;;;;;;;;;;;23.30;47.90;;;;;;5074901;28;19916;-61
2022/06/08 03:04:52;;;;;;;;;;;23.30;47.90;;;;;;5074896;28;19909;-62
2022/06/08 03:07:23;;;;;;;;;;;23.30;47.90;;;;;;5074924;28;19958;-61
2022/06/08 03:09:49;;;;;;;;;;;23.30;47.90;;;;;;5074663;28;20425;-62
2022/06/08 03:12:16;;;;;;;;;;;23.30;47.90;;;;;;5057011;28;19916;-61
2022/06/08 03:14:42;;;;;;;;;;;23.30;47.90;;;;;;5057105;28;19913;-62
2022/06/08 03:17:08;;;;;;;;;;;23.30;47.90;;;;;;5056997;28;19908;-62
2022/06/08 03:19:34;;;;;;;;;;;23.30;47.80;;;;;;5074782;28;19958;-62
2022/06/08 03:21:59;;;;;;;;;;;23.30;47.80;;;;;;5074504;28;19916;-62
2022/06/08 03:24:25;;;;;;;;;;;23.30;47.80;;;;;;5074636;28;19909;-62
2022/06/08 03:26:55;;;;;;;;;;;23.30;47.90;;;;;;5074474;28;19913;-62
2022/06/08 03:29:20;;;;;;;;;;;23.30;47.80;;;;;;5056700;28;19913;-62
2022/06/08 03:31:45;;;;;;;;;;;23.30;47.80;;;;;;5074133;28;19916;-61
2022/06/08 03:34:11;;;;;;;;;;;23.30;47.90;;;;;;5074125;28;20042;-62
2022/06/08 03:36:36;;;;;;;;;;;23.30;47.80;;;;;;5074287;28;19908;-62
2022/06/08 03:39:02;;;;;;;;;;;23.30;47.80;;;;;;5073939;28;19909;-62
2022/06/08 03:41:28;;;;;;;;;;;23.30;47.70;;;;;;5072838;28;20257;-62
2022/06/08 03:43:53;;;;;;;;;;;23.30;47.70;;;;;;5073885;28;19908;-62
2022/06/08 03:46:18;;;;;;;;;;;23.30;47.70;;;;;;5073849;28;20356;-62
2022/06/08 03:48:45;;;;;;;;;;;23.30;47.60;;;;;;5073668;28;20764;-62
2022/06/08 03:51:12;;;;;;;;;;;23.30;47.60;;;;;;5073870;28;20391;-62
2022/06/08 03:53:40;;;;;;;;;;;23.40;47.70;;;;;;5056068;28;19944;-62
2022/06/08 03:56:05;;;;;;;;;;;23.30;47.60;;;;;;5073760;28;19970;-62
2022/06/08 03:58:31;;;;;;;;;;;23.30;47.70;;;;;;5073627;28;20356;-62
2022/06/08 04:00:57;;;;;;;;;;;23.30;47.60;;;;;;5073581;28;20336;-62
2022/06/08 04:03:22;;;;;;;;;;;23.30;47.70;;;;;;5055708;28;20279;-62
2022/06/08 04:05:47;;;;;;;;;;;23.30;47.60;;;;;;5055687;28;19996;-62
2022/06/08 04:08:13;;;;;;;;;;;23.30;47.60;;;;;;5073227;28;19951;-62
2022/06/08 04:10:38;;;;;;;;;;;23.30;47.50;;;;;;5072805;28;19909;-62
2022/06/08 04:13:04;;;;;;;;;;;23.30;47.60;;;;;;5073717;28;19908;-62
2022/06/08 04:15:42;;;;;;;;;;;23.30;47.50;;;;;;5073477;28;20280;-62
2022/06/08 04:18:07;;;;;;;;;;;23.30;47.50;;;;;;5073540;28;20328;-62
2022/06/08 04:20:33;;;;;;;;;;;23.30;47.60;;;;;;5089080;28;20069;-62
2022/06/08 04:22:58;;;;;;;;;;;23.30;47.60;;;;;;5073251;28;19908;-62
2022/06/08 04:25:24;;;;;;;;;;;23.30;47.60;;;;;;5073291;28;19915;-62
2022/06/08 04:27:49;;;;;;;;;;;23.30;47.60;;;;;;5073182;28;19923;-62
2022/06/08 04:30:15;;;;;;;;;;;23.30;47.60;;;;;;5055420;28;19915;-62
2022/06/08 04:32:40;;;;;;;;;;;23.30;47.70;;;;;;5073071;28;20007;-62
2022/06/08 04:35:06;;;;;;;;;;;23.30;47.70;;;;;;5055363;28;19915;-62
2022/06/08 04:37:31;;;;;;;;;;;23.30;47.70;;;;;;5073251;28;19915;-62
2022/06/08 04:39:57;;;;;;;;;;;23.20;47.60;;;;;;5073120;28;19913;-62
2022/06/08 04:42:22;;;;;;;;;;;23.30;47.70;;;;;;5073151;28;19949;-62
2022/06/08 04:44:48;;;;;;;;;;;23.30;47.70;;;;;;5073079;28;19908;-62
2022/06/08 04:47:13;;;;;;;;;;;23.30;47.70;;;;;;5073016;28;19916;-62
2022/06/08 04:49:39;;;;;;;;;;;23.30;47.70;;;;;;5055118;28;20386;-62
2022/06/08 04:52:05;;;;;;;;;;;23.20;47.70;;;;;;5072851;28;19909;-62
2022/06/08 04:54:31;;;;;;;;;;;23.20;47.80;;;;;;5072854;28;20287;-62
2022/06/08 04:56:56;;;;;;;;;;;23.20;47.80;;;;;;5072917;28;19909;-62
2022/06/08 04:59:22;;;;;;;;;;;23.20;47.80;;;;;;5072849;28;19908;-62
2022/06/08 05:01:48;;;;;;;;;;;23.20;47.70;;;;;;5072808;28;19908;-62
2022/06/08 05:04:13;;;;;;;;;;;23.20;47.80;;;;;;5054815;28;19954;-63
2022/06/08 05:06:38;;;;;;;;;;;23.20;47.80;;;;;;5054757;28;19944;-62
2022/06/08 05:09:04;;;;;;;;;;;23.10;47.90;;;;;;5072666;28;19919;-62
2022/06/08 05:11:29;;;;;;;;;;;23.10;47.90;;;;;;5072674;28;19915;-62
2022/06/08 05:13:55;;;;;;;;;;;23.10;47.90;;;;;;5072827;28;20275;-62
2022/06/08 05:16:20;;;;;;;;;;;23.10;47.90;;;;;;5072843;28;19912;-62
2022/06/08 05:18:46;;;;;;;;;;;23.10;47.90;;;;;;5072469;28;19962;-62
2022/06/08 05:21:11;;;;;;;;;;;23.10;47.90;;;;;;5075025;28;19915;-62
2022/06/08 05:23:38;;;;;;;;;;;23.10;48.00;;;;;;5076614;28;20022;-62
2022/06/08 05:26:03;;;;;;;;;;;23.00;48.10;;;;;;5076745;28;20288;-62
2022/06/08 05:28:29;;;;;;;;;;;23.00;48.10;;;;;;5076490;28;19912;-62
2022/06/08 05:30:56;;;;;;;;;;;23.00;48.10;;;;;;5076978;28;19913;-62
2022/06/08 05:33:22;;;;;;;;;;;23.00;48.10;;;;;;5076499;28;19916;-62
2022/06/08 05:35:48;;;;;;;;;;;23.10;48.10;;;;;;5076402;28;20425;-62
2022/06/08 05:38:13;;;;;;;;;;;23.10;48.10;;;;;;5076438;28;20004;-62
2022/06/08 05:40:39;;;;;;;;;;;23.00;48.20;;;;;;5076422;28;19909;-62
2022/06/08 05:43:05;;;;;;;;;;;23.00;48.20;;;;;;5076362;28;19916;-62
2022/06/08 05:45:30;;;;;;;;;;;23.00;48.20;;;;;;5076271;28;19974;-62
2022/06/08 05:47:56;;;;;;;;;;;22.90;48.30;;;;;;5058250;28;19921;-62
2022/06/08 05:50:22;;;;;;;;;;;22.90;48.40;;;;;;5058361;28;19995;-62
2022/06/08 05:52:47;;;;;;;;;;;22.90;48.50;;;;;;5058323;28;19962;-62
2022/06/08 05:55:13;;;;;;;;;;;22.80;48.60;;;;;;5058291;28;19958;-62
2022/06/08 05:57:39;;;;;;;;;;;22.80;48.70;;;;;;5076254;28;19908;-62
2022/06/08 06:00:05;;;;;;;;;;;22.90;48.70;;;;;;5076020;28;19954;-62
2022/06/08 06:02:30;;;;;;;;;;;22.80;48.50;;;;;;5091358;28;20086;-62
2022/06/08 06:04:56;;;;;;;;;;;22.90;48.50;;;;;;5075825;28;19908;-62
2022/06/08 06:07:21;;;;;;;;;;;22.90;48.40;;;;;;5075861;28;19909;-62
2022/06/08 06:09:47;;;;;;;;;;;23.00;48.40;;;;;;5075659;28;19948;-62
2022/06/08 06:12:12;;;;;;;;;;;23.00;48.30;;;;;;5091386;28;19974;-61
2022/06/08 06:14:38;;;;;;;;;;;23.00;48.20;;;;;;5075767;28;19915;-62
2022/06/08 06:17:03;;;;;;;;;;;23.10;48.20;;;;;;5075803;28;19909;-62
2022/06/08 06:19:29;;;;;;;;;;;23.00;48.10;;;;;;5075382;28;19908;-62
2022/06/08 06:21:54;;;;;;;;;;;23.00;48.10;;;;;;5075639;28;19961;-62
2022/06/08 06:24:20;;;;;;;;;;;23.00;48.10;;;;;;5075754;28;19964;-62
2022/06/08 06:26:45;;;;;;;;;;;23.00;48.20;;;;;;5075430;28;19919;-62
2022/06/08 06:29:11;;;;;;;;;;;23.00;48.20;;;;;;5075166;28;19917;-62
2022/06/08 06:31:40;;;;;;;;;;;23.00;48.30;;;;;;5075169;28;19909;-62
2022/06/08 06:34:06;;;;;;;;;;;23.00;48.30;;;;;;5056949;28;19908;-62
2022/06/08 06:36:31;;;;;;;;;;;23.00;48.30;;;;;;5057290;28;19920;-62
2022/06/08 06:38:57;;;;;;;;;;;23.00;48.30;;;;;;5090718;28;19909;-62
2022/06/08 06:41:22;;;;;;;;;;;23.00;48.20;;;;;;5075182;28;19915;-62
2022/06/08 06:43:48;;;;;;;;;;;23.00;48.20;;;;;;5074903;28;19908;-62
2022/06/08 06:46:13;;;;;;;;;;;23.00;48.20;;;;;;5075028;28;19909;-62
2022/06/08 06:48:39;;;;;;;;;;;23.00;48.30;;;;;;5040461;28;19916;-62
2022/06/08 06:51:04;;;;;;;;;;;23.00;48.30;;;;;;5075005;28;19908;-62
2022/06/08 06:53:30;;;;;;;;;;;23.10;48.30;;;;;;5074935;28;20435;-62
2022/06/08 06:55:55;;;;;;;;;;;23.00;48.30;;;;;;5075057;28;19912;-62
2022/06/08 06:58:21;;;;;;;;;;;23.00;48.30;;;;;;5056958;28;19916;-62
2022/06/08 07:00:47;;;;;;;;;;;23.00;48.30;;;;;;5056821;28;19909;-62
2022/06/08 07:03:12;;;;;;;;;;;23.00;48.40;;;;;;5075102;28;19915;-62
2022/06/08 07:05:37;;;;;;;;;;;23.00;48.50;;;;;;5074762;28;19908;-62
2022/06/08 07:08:03;;;;;;;;;;;23.00;48.50;;;;;;5074550;28;19927;-62
2022/06/08 07:10:29;;;;;;;;;;;23.00;48.40;;;;;;5074567;28;19915;-62
2022/06/08 07:12:54;;;;;;;;;;;23.00;48.30;;;;;;5074714;28;19908;-62
2022/06/08 07:15:20;;;;;;;;;;;23.00;48.20;;;;;;5056746;28;19912;-62
2022/06/08 07:17:45;;;;;;;;;;;23.00;48.30;;;;;;5074479;28;20028;-62
2022/06/08 07:20:11;;;;;;;;;;;23.00;48.30;;;;;;5074356;28;20375;-63
2022/06/08 07:22:37;;;;;;;;;;;23.00;48.20;;;;;;5056611;28;19954;-62
2022/06/08 07:25:03;;;;;;;;;;;23.00;48.30;;;;;;5056514;28;19909;-62
2022/06/08 07:27:28;;;;;;;;;;;23.00;48.30;;;;;;5074377;28;19913;-62
2022/06/08 07:29:55;;;;;;;;;;;23.00;48.40;;;;;;5074247;28;20449;-62
2022/06/08 07:32:20;;;;;;;;;;;23.00;48.40;;;;;;5074472;28;20353;-62
2022/06/08 07:34:46;;;;;;;;;;;23.00;48.30;;;;;;5074022;28;19912;-62
2022/06/08 07:37:11;;;;;;;;;;;23.00;48.40;;;;;;5074089;28;20046;-62
2022/06/08 07:39:37;;;;;;;;;;;23.00;48.40;;;;;;5074161;28;19916;-62
2022/06/08 07:42:03;;;;;;;;;;;23.00;48.30;;;;;;5056122;28;19909;-62
2022/06/08 07:44:28;;;;;;;;;;;23.00;48.30;;;;;;5074233;28;20284;-62
2022/06/08 07:46:54;;;;;;;;;;;23.00;48.40;;;;;;5073883;28;19917;-62
2022/06/08 07:49:39;;;;;;;;;;;23.00;48.30;;;;;;5073895;28;19916;-62
2022/06/08 07:52:08;;;;;;;;;;;23.00;48.40;;;;;;5074076;28;19908;-62
2022/06/08 07:54:33;;;;;;;;;;;23.00;48.40;;;;;;5055991;28;19912;-62
2022/06/08 07:56:59;;;;;;;;;;;23.00;48.40;;;;;;5073973;28;19930;-62
2022/06/08 07:59:25;;;;;;;;;;;23.00;48.40;;;;;;5055660;28;19909;-62
2022/06/08 08:01:52;;;;;;;;;;;23.00;48.50;;;;;;5073588;28;19912;-62
2022/06/08 08:04:17;;;;;;;;;;;22.90;48.60;;;;;;5073572;28;19916;-62
2022/06/08 08:06:43;;;;;;;;;;;23.00;48.60;;;;;;5073615;28;19916;-62
2022/06/08 08:09:13;;;;;;;;;;;23.00;48.50;;;;;;5073363;28;19912;-63
2022/06/08 08:11:39;;;;;;;;;;;23.00;48.40;;;;;;5073778;28;19912;-62
2022/06/08 08:14:04;;;;;;;;;;;23.00;48.40;;;;;;5073466;28;19916;-62
2022/06/08 08:16:31;;;;;;;;;;;23.00;48.40;;;;;;5073429;28;19909;-62
2022/06/08 08:18:57;;;;;;;;;;;23.10;48.50;;;;;;5056104;28;19908;-62
2022/06/08 08:21:24;;;;;;;;;;;23.10;48.40;;;;;;5073440;28;19908;-62
2022/06/08 08:23:49;;;;;;;;;;;23.10;48.50;;;;;;5073260;28;20262;-62
2022/06/08 08:26:15;;;;;;;;;;;23.00;48.40;;;;;;5073288;28;19924;-62
2022/06/08 08:28:40;;;;;;;;;;;23.00;48.40;;;;;;5073189;28;19942;-62
2022/06/08 08:31:05;;;;;;;;;;;23.00;48.40;;;;;;5073195;28;19923;-62
2022/06/08 08:33:31;;;;;;;;;;;23.10;48.50;;;;;;5073153;28;19912;-62
2022/06/08 08:35:56;;;;;;;;;;;23.10;48.50;;;;;;5073189;28;19916;-62
2022/06/08 08:38:22;;;;;;;;;;;23.10;48.50;;;;;;5073084;28;20356;-62
2022/06/08 08:40:48;;;;;;;;;;;23.10;48.40;;;;;;5073387;28;20380;-62
2022/06/08 08:43:15;;;;;;;;;;;23.10;48.40;;;;;;5073232;28;20280;-62
2022/06/08 08:45:43;;;;;;;;;;;23.10;48.40;;;;;;5073127;28;20097;-62
2022/06/08 08:48:09;;;;;;;;;;;23.20;48.50;;;;;;5072783;28;19921;-62
2022/06/08 08:50:37;;;;;;;;;;;23.20;48.40;;;;;;5072613;28;19916;-62
2022/06/08 08:53:15;;;;;;;;;;;23.20;48.40;;;;;;5054799;28;19909;-62
2022/06/08 08:55:46;;;;;;;;;;;23.30;48.40;;;;;;5054379;28;20376;-62
2022/06/08 08:58:14;;;;;;;;;;;23.30;48.10;;;;;;5073008;28;19913;-62
2022/06/08 09:00:43;;;;;;;;;;;23.40;48.30;;;;;;5055040;28;19991;-62
2022/06/08 09:03:23;;;;;;;;;;;23.40;48.10;;;;;;5054955;28;20005;-62
2022/06/08 09:05:49;;;;;;;;;;;23.40;48.10;;;;;;5072791;28;19913;-62
2022/06/08 09:08:15;;;;;;;;;;;23.40;48.10;;;;;;5054809;28;19916;-62
2022/06/08 09:10:41;;;;;;;;;;;23.40;47.90;;;;;;5038237;28;19920;-62
2022/06/08 09:13:09;;;;;;;;;;;23.50;48.10;;;;;;5072818;28;19999;-62
2022/06/08 09:15:45;;;;;;;;;;;23.50;48.00;;;;;;5054966;28;19939;-62
2022/06/08 09:18:18;;;;;;;;;;;23.50;48.40;;;;;;5072588;28;19908;-62
2022/06/08 09:20:43;;;;;;;;;;;23.40;48.10;;;;;;5054611;28;20421;-62
2022/06/08 09:23:27;;;;;;;;;;;23.40;48.20;;;;;;5072790;28;19909;-62
2022/06/08 09:26:24;;;;;;;;;;;23.40;48.30;;;;;;5072399;28;19915;-62
2022/06/08 09:29:00;;;;;;;;;;;23.40;48.40;;;;;;5038510;28;20315;-62
2022/06/08 09:31:30;;;;;;;;;;;23.40;48.50;;;;;;5072534;28;19908;-62
2022/06/08 09:34:06;;;;;;;;;;;23.40;48.60;;;;;;5072288;28;19916;-63
2022/06/08 09:36:31;;;;;;;;;;;23.40;48.70;;;;;;5072459;28;19970;-62
2022/06/08 09:38:56;;;;;;;;;;;23.40;48.60;;;;;;5072468;28;19912;-62
2022/06/08 09:41:25;;;;;;;;;;;23.40;48.50;;;;;;5072351;28;19909;-62
2022/06/08 09:43:55;;;;;;;;;;;23.40;48.60;;;;;;5072426;28;20269;-62
2022/06/08 09:52:26;;;;;;;;;;;23.40;48.70;;;;;;5072413;28;19962;-62
2022/06/08 09:54:54;;;;;;;;;;;23.40;48.60;;;;;;5072469;28;19920;-62
2022/06/08 09:57:29;;;;;;;;;;;23.40;48.50;;;;;;5054217;28;19962;-62
2022/06/08 09:59:57;;;;;;;;;;;23.40;48.70;;;;;;5054380;28;19909;-62
2022/06/08 10:02:41;;;;;;;;;;;23.30;48.90;;;;;;5072204;28;20357;-63
2022/06/08 10:05:25;;;;;;;;;;;23.30;49.00;;;;;;5072027;28;19915;-62
2022/06/08 10:08:02;;;;;;;;;;;23.30;49.20;;;;;;5073297;28;19954;-62
2022/06/08 10:10:33;;;;;;;;;;;23.30;49.30;;;;;;5075843;28;19954;-62
2022/06/08 10:13:03;;;;;;;;;;;23.30;49.20;;;;;;5057942;28;19912;-62
2022/06/08 10:15:31;;;;;;;;;;;23.30;49.10;;;;;;5075510;28;20344;-63
2022/06/08 10:18:17;;;;;;;;;;;23.30;49.30;;;;;;5057942;28;19912;-62
2022/06/08 10:20:55;;;;;;;;;;;23.30;49.30;;;;;;5075586;28;19931;-62
2022/06/08 10:23:26;;;;;;;;;;;23.30;49.40;;;;;;5058005;28;19954;-62
2022/06/08 10:26:03;;;;;;;;;;;23.30;49.40;;;;;;5057738;28;19912;-62
2022/06/08 10:28:33;;;;;;;;;;;23.30;49.30;;;;;;5075525;28;20381;-62
2022/06/08 10:31:19;;;;;;;;;;;23.30;49.40;;;;;;5075579;28;20391;-62
2022/06/08 10:33:47;;;;;;;;;;;23.30;49.40;;;;;;5064769;28;19909;-62
2022/06/08 10:36:13;;;;;;;;;;;23.40;49.60;;;;;;5075321;28;19957;-62
2022/06/08 10:38:42;;;;;;;;;;;23.40;49.50;;;;;;5057248;28;20011;-62
2022/06/08 10:43:55;;;;;;;;;;;23.40;49.50;;;;;;5081943;28;20075;-62
2022/06/08 10:46:28;;;;;;;;;;;23.40;49.60;;;;;;5075010;28;20014;-62
2022/06/08 10:48:54;;;;;;;;;;;23.40;49.60;;;;;;5074657;28;19913;-62
2022/06/08 10:51:20;;;;;;;;;;;23.40;49.50;;;;;;5056912;28;19916;-62
2022/06/08 10:56:34;;;;;;;;;;;23.40;49.50;;;;;;5074867;28;20383;-62
2022/06/08 10:59:03;;;;;;;;;;;23.40;49.60;;;;;;5057267;28;20000;-63
2022/06/08 11:01:47;;;;;;;;;;;23.40;49.60;;;;;;5074777;28;20356;-62
2022/06/08 11:04:32;;;;;;;;;;;23.50;49.70;;;;;;5074522;28;19908;-62
2022/06/08 11:07:00;;;;;;;;;;;23.40;49.60;;;;;;5074623;28;19908;-62
2022/06/08 11:09:31;;;;;;;;;;;23.50;49.70;;;;;;5056480;28;20383;-63
2022/06/08 11:12:01;;;;;;;;;;;23.50;49.70;;;;;;5074721;28;19916;-62
2022/06/08 11:14:28;;;;;;;;;;;23.50;49.70;;;;;;5074632;28;19999;-62
2022/06/08 11:16:53;;;;;;;;;;;23.50;49.70;;;;;;5090083;28;20356;-62
2022/06/08 11:19:19;;;;;;;;;;;23.50;49.70;;;;;;5074189;28;19991;-62
2022/06/08 11:21:45;;;;;;;;;;;23.50;49.80;;;;;;5056656;28;19915;-62
2022/06/08 11:24:28;;;;;;;;;;;23.50;49.80;;;;;;5074808;28;20003;-63
2022/06/08 11:27:13;;;;;;;;;;;23.50;49.80;;;;;;5074413;28;19909;-62
2022/06/08 11:29:48;;;;;;;;;;;23.50;49.80;;;;;;5074210;28;20023;-62
2022/06/08 11:32:32;;;;;;;;;;;23.50;49.80;;;;;;5074378;28;20388;-63
2022/06/08 11:35:16;;;;;;;;;;;23.50;49.80;;;;;;5074667;28;20321;-62
2022/06/08 11:38:05;;;;;;;;;;;23.50;49.80;;;;;;5074110;28;19995;-62
2022/06/08 11:40:32;;;;;;;;;;;23.50;49.80;;;;;;5056185;28;19958;-63
2022/06/08 11:43:06;;;;;;;;;;;23.50;50.00;;;;;;5056247;28;19914;-62
2022/06/08 11:45:42;;;;;;;;;;;23.50;49.80;;;;;;5074009;28;19947;-62
2022/06/08 11:48:13;;;;;;;;;;;23.50;49.80;;;;;;5073803;28;19963;-63
2022/06/08 11:50:41;;;;;;;;;;;23.60;49.90;;;;;;5074166;28;19908;-62
2022/06/08 11:53:09;;;;;;;;;;;23.60;49.80;;;;;;5073741;28;19908;-62
2022/06/08 11:55:41;;;;;;;;;;;23.60;49.70;;;;;;5055634;28;20002;-62
2022/06/08 11:58:08;;;;;;;;;;;23.70;49.90;;;;;;5073736;28;19927;-63
2022/06/08 12:00:35;;;;;;;;;;;23.70;49.70;;;;;;5072429;28;19908;-62
2022/06/08 12:03:15;;;;;;;;;;;23.70;49.70;;;;;;5073580;28;19922;-64
2022/06/08 12:05:41;;;;;;;;;;;23.70;49.70;;;;;;5073550;28;19971;-62
2022/06/08 12:08:09;;;;;;;;;;;23.70;49.60;;;;;;5055386;28;19916;-62
2022/06/08 12:10:35;;;;;;;;;;;23.80;49.60;;;;;;5055671;28;19912;-62
2022/06/08 12:13:00;;;;;;;;;;;23.80;49.60;;;;;;5089088;28;19909;-62
2022/06/08 12:15:32;;;;;;;;;;;23.80;49.50;;;;;;5073599;28;19908;-62
2022/06/08 12:18:07;;;;;;;;;;;23.80;49.40;;;;;;5073333;28;19916;-62
2022/06/08 12:20:34;;;;;;;;;;;23.90;49.40;;;;;;5073292;28;19913;-62
2022/06/08 12:23:00;;;;;;;;;;;23.80;49.40;;;;;;5073572;28;19909;-62
2022/06/08 12:25:27;;;;;;;;;;;23.80;49.40;;;;;;5073193;28;19931;-62
2022/06/08 12:27:54;;;;;;;;;;;23.80;49.30;;;;;;5073220;28;20387;-62
2022/06/08 12:30:24;;;;;;;;;;;23.90;49.30;;;;;;5054703;28;19908;-62
2022/06/08 12:32:54;;;;;;;;;;;23.90;49.40;;;;;;5073256;28;19909;-62
2022/06/08 12:35:25;;;;;;;;;;;23.90;49.30;;;;;;5073243;28;19955;-62
2022/06/08 12:38:01;;;;;;;;;;;23.90;49.30;;;;;;5073045;28;19909;-62
2022/06/08 12:40:28;;;;;;;;;;;24.00;49.20;;;;;;5055225;28;19909;-62
2022/06/08 12:42:57;;;;;;;;;;;24.00;49.10;;;;;;5073327;28;19935;-62
2022/06/08 12:45:30;;;;;;;;;;;24.00;49.10;;;;;;5073026;28;20425;-63
2022/06/08 12:47:56;;;;;;;;;;;24.00;49.10;;;;;;5072786;28;19924;-62
2022/06/08 12:50:24;;;;;;;;;;;24.00;49.20;;;;;;5054908;28;21275;-62
2022/06/08 12:52:50;;;;;;;;;;;24.00;49.20;;;;;;5072967;28;19909;-62
2022/06/08 12:55:16;;;;;;;;;;;24.00;49.20;;;;;;5073225;28;19909;-62
2022/06/08 12:57:44;;;;;;;;;;;24.00;50.00;;;;;;5072967;28;20372;-62
2022/06/08 13:00:11;;;;;;;;;;;24.00;49.70;;;;;;5073115;28;19912;-61
2022/06/08 13:02:37;;;;;;;;;;;24.00;49.80;;;;;;5072856;28;19991;-61
2022/06/08 13:05:05;;;;;;;;;;;24.00;49.80;;;;;;5054725;28;20379;-61
2022/06/08 13:07:30;;;;;;;;;;;24.00;49.70;;;;;;5072669;28;19955;-61
2022/06/08 13:09:56;;;;;;;;;;;24.00;49.60;;;;;;5072610;28;20407;-61
2022/06/08 13:12:23;;;;;;;;;;;24.00;49.60;;;;;;5072946;28;19912;-61
2022/06/08 13:14:48;;;;;;;;;;;24.10;49.50;;;;;;5072701;28;19959;-61
2022/06/08 13:17:14;;;;;;;;;;;24.10;49.30;;;;;;5072969;28;19957;-62
2022/06/08 13:19:39;;;;;;;;;;;24.20;49.20;;;;;;5072752;28;19987;-61
2022/06/08 13:22:05;;;;;;;;;;;24.30;49.20;;;;;;5054778;28;20288;-61
2022/06/08 13:24:30;;;;;;;;;;;24.20;49.20;;;;;;5088515;28;19908;-61
2022/06/08 13:26:56;;;;;;;;;;;24.20;49.40;;;;;;5072647;28;19908;-61
2022/06/08 13:29:21;;;;;;;;;;;24.20;49.40;;;;;;5072401;28;20257;-61
2022/06/08 13:31:47;;;;;;;;;;;24.20;49.40;;;;;;5072504;28;19931;-61
2022/06/08 13:34:13;;;;;;;;;;;24.30;49.40;;;;;;5072693;28;20261;-61
2022/06/08 13:36:39;;;;;;;;;;;24.30;49.50;;;;;;5072760;28;19909;-61
2022/06/08 13:39:08;;;;;;;;;;;24.30;49.40;;;;;;5072496;28;19909;-61
2022/06/08 13:41:33;;;;;;;;;;;24.30;49.50;;;;;;5073319;28;19909;-61
2022/06/08 13:43:59;;;;;;;;;;;24.30;49.40;;;;;;5076254;28;20007;-61
2022/06/08 13:46:25;;;;;;;;;;;24.30;49.30;;;;;;5076074;28;19923;-61
2022/06/08 13:48:52;;;;;;;;;;;24.30;49.30;;;;;;5076046;28;20007;-61
2022/06/08 13:51:17;;;;;;;;;;;24.40;49.40;;;;;;5058084;28;19909;-62
2022/06/08 13:53:44;;;;;;;;;;;24.40;49.30;;;;;;5076005;28;20425;-62
2022/06/08 13:56:11;;;;;;;;;;;24.40;49.20;;;;;;5076114;28;19908;-61
2022/06/08 13:58:36;;;;;;;;;;;24.50;49.30;;;;;;5076173;28;19948;-61
2022/06/08 14:01:04;;;;;;;;;;;24.50;49.30;;;;;;5075960;28;19913;-62
2022/06/08 14:03:30;;;;;;;;;;;24.50;49.30;;;;;;5058175;28;19909;-62
2022/06/08 14:14:09;;;;;;;;;;;24.60;49.30;;;;;;5061167;28;19931;-61
2022/06/08 14:16:37;;;;;;;;;;;24.60;49.20;;;;;;5076286;28;19909;-61
2022/06/08 14:19:07;;;;;;;;;;;24.60;49.00;;;;;;5057939;28;20387;-61
2022/06/08 14:21:33;;;;;;;;;;;24.70;48.90;;;;;;5075843;28;19909;-61
2022/06/08 14:23:59;;;;;;;;;;;24.70;48.70;;;;;;5075849;28;20027;-61
2022/06/08 14:26:25;;;;;;;;;;;24.70;48.60;;;;;;5075826;28;19995;-61
2022/06/08 14:28:52;;;;;;;;;;;24.80;48.40;;;;;;5057685;28;19995;-61
2022/06/08 14:31:19;;;;;;;;;;;24.80;48.40;;;;;;5075744;28;20356;-61
2022/06/08 14:33:44;;;;;;;;;;;24.80;48.40;;;;;;5075588;28;19908;-61
2022/06/08 14:36:11;;;;;;;;;;;24.80;48.50;;;;;;5075583;28;20386;-61
2022/06/08 14:38:37;;;;;;;;;;;24.80;48.40;;;;;;5057479;28;20288;-61
2022/06/08 14:41:02;;;;;;;;;;;24.80;48.50;;;;;;5075472;28;19915;-61
2022/06/08 14:43:28;;;;;;;;;;;24.80;48.90;;;;;;5074212;28;19991;-61